Time;durP1;ratioP1;P1;durP2;ratioP2;P2;SDS_P1;SDS_P2;PMS_P1;PMS_P2;Temp;Humidity;BMP_temperature;BMP_pressure;BME280_temperature;BME280_humidity;BME280_pressure;Samples;Min_cycle;Max_cycle;Signal;HPM_P1;HPM_P2
2023/08/28 00:02:26;;;;;;;4.90;1.10;;;14.10;99.90;;;;;;5082723;28;20453;-60
2023/08/28 00:04:53;;;;;;;2.50;1.05;;;14.10;99.90;;;;;;5080811;28;20044;-61
2023/08/28 00:07:20;;;;;;;2.08;1.02;;;14.10;99.90;;;;;;5090151;28;20044;-62
2023/08/28 00:09:46;;;;;;;2.25;1.15;;;14.10;99.90;;;;;;5093786;28;20058;-62
2023/08/28 00:12:13;;;;;;;9.95;1.48;;;14.00;99.90;;;;;;5093526;28;20040;-60
2023/08/28 00:14:40;;;;;;;4.10;1.45;;;14.00;99.90;;;;;;5087575;28;20043;-62
2023/08/28 00:17:07;;;;;;;3.00;1.35;;;14.00;99.90;;;;;;5085766;28;20119;-60
2023/08/28 00:19:34;;;;;;;3.22;1.50;;;14.00;99.90;;;;;;5090097;28;20402;-61
2023/08/28 00:22:00;;;;;;;3.70;1.42;;;13.90;99.90;;;;;;5080678;28;20128;-62
2023/08/28 00:24:27;;;;;;;3.55;1.70;;;13.90;99.90;;;;;;5073281;28;20048;-62
2023/08/28 00:26:54;;;;;;;4.32;1.52;;;13.90;99.90;;;;;;5093631;28;20044;-60
2023/08/28 00:29:20;;;;;;;2.00;1.33;;;14.00;99.90;;;;;;5067273;28;20485;-62
2023/08/28 00:31:47;;;;;;;4.13;1.30;;;14.00;99.90;;;;;;5067148;28;20119;-62
2023/08/28 00:34:14;;;;;;;7.25;1.50;;;14.00;99.90;;;;;;5072947;28;20044;-59
2023/08/28 00:36:42;;;;;;;3.60;1.40;;;14.00;99.90;;;;;;5070507;28;20162;-61
2023/08/28 00:39:09;;;;;;;4.82;1.38;;;14.00;99.90;;;;;;5071837;28;20042;-61
2023/08/28 00:41:36;;;;;;;3.65;1.30;;;14.10;99.90;;;;;;5092449;28;20040;-61
2023/08/28 00:44:03;;;;;;;;;;;14.10;99.90;;;;;;5074907;28;20131;-60
2023/08/28 00:46:30;;;;;;;4.88;1.35;;;14.10;99.90;;;;;;5091195;28;20577;-61
2023/08/28 00:48:57;;;;;;;8.35;1.02;;;14.10;99.90;;;;;;5070593;28;20051;-61
2023/08/28 00:51:25;;;;;;;4.25;1.45;;;14.00;99.90;;;;;;5081269;28;20048;-62
2023/08/28 00:53:51;;;;;;;;;;;14.00;99.90;;;;;;5069024;28;20131;-60
2023/08/28 00:56:18;;;;;;;5.22;1.48;;;14.00;99.90;;;;;;5071602;28;19924;-60
2023/08/28 00:58:45;;;;;;;2.90;1.35;;;14.00;99.90;;;;;;5079450;28;20460;-62
2023/08/28 01:01:12;;;;;;;;;;;14.00;99.90;;;;;;5063625;28;20089;-61
2023/08/28 01:03:40;;;;;;;4.53;1.73;;;14.00;99.90;;;;;;5062410;28;20130;-60
2023/08/28 01:06:21;;;;;;;2.28;1.30;;;14.00;99.90;;;;;;5072398;28;20040;-61
2023/08/28 01:08:57;;;;;;;3.03;1.27;;;14.00;99.90;;;;;;5068995;28;20044;-61
2023/08/28 01:11:36;;;;;;;5.50;1.13;;;14.00;99.90;;;;;;5070819;28;20052;-60
2023/08/28 01:14:17;;;;;;;3.67;1.25;;;14.00;99.90;;;;;;5072451;28;20062;-60
2023/08/28 01:16:45;;;;;;;2.83;1.10;;;14.00;99.90;;;;;;5062470;28;20058;-59
2023/08/28 01:19:32;;;;;;;2.13;1.17;;;14.00;99.90;;;;;;5054114;28;20400;-61
2023/08/28 01:22:23;;;;;;;3.95;1.38;;;14.00;99.90;;;;;;5047240;28;20120;-61
2023/08/28 01:24:53;;;;;;;2.15;1.17;;;13.90;99.90;;;;;;5059234;28;20431;-60
2023/08/28 01:27:21;;;;;;;8.98;1.90;;;13.90;99.90;;;;;;5068505;28;20442;-62
2023/08/28 01:30:06;;;;;;;3.35;1.52;;;13.90;99.90;;;;;;5067469;28;20131;-61
2023/08/28 01:32:34;;;;;;;4.53;1.80;;;13.90;99.90;;;;;;5089145;28;20139;-61
2023/08/28 01:35:04;;;;;;;8.15;2.10;;;13.90;99.90;;;;;;5083900;28;20040;-62
2023/08/28 01:37:41;;;;;;;5.60;1.48;;;14.00;99.90;;;;;;5073925;28;20040;-61
2023/08/28 01:40:12;;;;;;;2.22;1.17;;;14.00;99.90;;;;;;5084345;28;20451;-60
2023/08/28 01:42:39;;;;;;;5.43;1.33;;;14.00;99.90;;;;;;5090242;28;20512;-61
2023/08/28 01:45:07;;;;;;;3.80;1.30;;;14.00;99.90;;;;;;5086513;28;20052;-61
2023/08/28 01:47:34;;;;;;;3.47;1.23;;;14.00;99.90;;;;;;5072081;28;20101;-61
2023/08/28 01:50:01;;;;;;;7.80;1.48;;;14.00;99.90;;;;;;5066837;28;20448;-61
2023/08/28 01:52:28;;;;;;;5.13;1.80;;;14.00;99.90;;;;;;5070270;28;20033;-60
2023/08/28 01:54:54;;;;;;;6.22;1.63;;;14.00;99.90;;;;;;5085649;28;20694;-61
2023/08/28 01:57:22;;;;;;;7.25;1.98;;;14.00;99.90;;;;;;5062536;28;20053;-60
2023/08/28 01:59:49;;;;;;;14.68;2.47;;;14.00;99.90;;;;;;5073756;28;20090;-62
2023/08/28 02:02:15;;;;;;;7.97;1.70;;;14.00;99.90;;;;;;5069973;28;20041;-60
2023/08/28 02:04:42;;;;;;;4.00;1.65;;;13.90;99.90;;;;;;5057571;28;20036;-62
2023/08/28 02:07:09;;;;;;;4.65;1.92;;;13.90;99.90;;;;;;5073176;28;20048;-62
2023/08/28 02:09:36;;;;;;;2.55;1.70;;;13.90;99.90;;;;;;5091855;28;20048;-61
2023/08/28 02:12:03;;;;;;;2.63;1.40;;;13.90;99.90;;;;;;5083886;28;20520;-61
2023/08/28 02:14:29;;;;;;;5.28;2.03;;;13.90;99.90;;;;;;5055292;28;20588;-61
2023/08/28 02:16:56;;;;;;;2.78;1.70;;;13.80;99.90;;;;;;5072837;28;20470;-62
2023/08/28 02:19:23;;;;;;;8.60;2.00;;;13.80;99.90;;;;;;5064108;28;20048;-61
2023/08/28 02:21:50;;;;;;;5.95;1.77;;;13.80;99.90;;;;;;5091701;28;20040;-60
2023/08/28 02:24:18;;;;;;;2.83;1.85;;;13.80;99.90;;;;;;5072660;28;20412;-62
2023/08/28 02:26:45;;;;;;;5.55;1.88;;;13.80;99.90;;;;;;5069756;28;20113;-61
2023/08/28 02:29:12;;;;;;;;;;;13.80;99.90;;;;;;5062219;28;20040;-61
2023/08/28 02:31:39;;;;;;;5.28;1.77;;;13.80;99.90;;;;;;5069777;28;19927;-61
2023/08/28 02:34:06;;;;;;;6.25;1.70;;;13.80;99.90;;;;;;5072772;28;20126;-61
2023/08/28 02:36:32;;;;;;;14.52;2.53;;;13.80;99.90;;;;;;5080576;28;20032;-61
2023/08/28 02:38:59;;;;;;;5.10;1.95;;;13.80;99.90;;;;;;5084809;28;20036;-61
2023/08/28 02:41:26;;;;;;;2.25;1.55;;;13.90;99.90;;;;;;5083160;28;20378;-61
2023/08/28 02:43:53;;;;;;;5.30;1.85;;;13.90;99.90;;;;;;5066622;28;20062;-59
2023/08/28 02:46:19;;;;;;;3.00;1.88;;;13.90;99.90;;;;;;5077382;28;20055;-61
2023/08/28 02:48:46;;;;;;;3.63;1.88;;;13.90;99.90;;;;;;5068888;28;20472;-61
2023/08/28 02:51:13;;;;;;;2.80;1.63;;;13.90;99.90;;;;;;5074178;28;20119;-60
2023/08/28 02:53:40;;;;;;;26.00;2.88;;;13.90;99.90;;;;;;5073157;28;20132;-61
2023/08/28 02:56:26;;;;;;;9.45;2.30;;;13.90;99.90;;;;;;5071745;28;20489;-61
2023/08/28 02:58:54;;;;;;;6.35;2.03;;;13.90;99.90;;;;;;5072458;28;20040;-60
2023/08/28 03:01:21;;;;;;;;;;;13.90;99.90;;;;;;5074109;28;20036;-61
2023/08/28 03:03:48;;;;;;;5.47;2.22;;;13.90;99.90;;;;;;5083112;28;19920;-61
2023/08/28 03:06:15;;;;;;;6.50;2.50;;;13.90;99.90;;;;;;5072601;28;20046;-60
2023/08/28 03:08:41;;;;;;;3.85;2.40;;;13.90;99.90;;;;;;5094716;28;20036;-61
2023/08/28 03:11:08;;;;;;;6.13;2.63;;;14.00;99.90;;;;;;5093941;28;20496;-60
2023/08/28 03:13:35;;;;;;;17.13;3.92;;;14.00;99.90;;;;;;5075524;28;20093;-61
2023/08/28 03:16:02;;;;;;;5.05;2.55;;;13.90;99.90;;;;;;5061933;28;20473;-61
2023/08/28 03:18:29;;;;;;;5.55;2.72;;;13.90;99.90;;;;;;5067210;28;20044;-61
2023/08/28 03:20:56;;;;;;;35.08;4.97;;;13.90;99.90;;;;;;5071679;28;20039;-61
2023/08/28 03:23:23;;;;;;;16.55;3.97;;;14.00;99.90;;;;;;5084823;28;20045;-59
2023/08/28 03:25:50;;;;;;;15.07;3.55;;;13.90;99.90;;;;;;5072182;28;20040;-60
2023/08/28 03:28:18;;;;;;;9.10;2.72;;;13.80;99.90;;;;;;5085159;28;20032;-60
2023/08/28 03:30:47;;;;;;;7.55;3.10;;;13.80;99.90;;;;;;5071604;28;20040;-63
2023/08/28 03:33:14;;;;;;;8.27;3.25;;;13.80;99.90;;;;;;5076199;28;20050;-61
2023/08/28 03:35:42;;;;;;;8.98;2.58;;;13.80;99.90;;;;;;5076198;28;20044;-62
2023/08/28 03:38:08;;;;;;;4.70;2.35;;;13.90;99.90;;;;;;5067575;28;20044;-60
2023/08/28 03:40:36;;;;;;;9.93;2.90;;;13.90;99.90;;;;;;5089587;28;20045;-61
2023/08/28 03:43:03;;;;;;;12.10;2.65;;;13.90;99.90;;;;;;5069160;28;20051;-61
2023/08/28 03:45:31;;;;;;;;;;;13.90;99.90;;;;;;5068983;28;20033;-62
2023/08/28 03:47:57;;;;;;;26.05;4.20;;;13.90;99.90;;;;;;5065745;28;19920;-61
2023/08/28 03:50:28;;;;;;;8.45;3.25;;;13.90;99.90;;;;;;5075860;28;20073;-61
2023/08/28 03:52:57;;;;;;;25.38;5.10;;;13.90;99.90;;;;;;5068735;28;20044;-60
2023/08/28 03:55:24;;;;;;;14.32;3.78;;;13.80;99.90;;;;;;5063810;28;20044;-61
2023/08/28 03:57:52;;;;;;;17.85;3.63;;;13.80;99.90;;;;;;5087022;28;20039;-61
2023/08/28 04:00:19;;;;;;;411.33;21.45;;;13.80;99.90;;;;;;5085524;28;20040;-60
2023/08/28 04:02:47;;;;;;;221.57;13.38;;;13.80;99.90;;;;;;5067018;28;20066;-61
2023/08/28 04:05:16;;;;;;;13.23;3.15;;;13.80;99.90;;;;;;5065675;28;20411;-61
2023/08/28 04:07:43;;;;;;;12.27;3.28;;;13.80;99.90;;;;;;5085866;28;20136;-62
2023/08/28 04:10:11;;;;;;;96.20;7.40;;;13.80;99.90;;;;;;5066957;28;20044;-61
2023/08/28 04:12:39;;;;;;;6.75;2.97;;;13.80;99.90;;;;;;5082341;28;20574;-60
2023/08/28 04:15:10;;;;;;;10.20;2.92;;;13.80;99.90;;;;;;5061546;28;20400;-60
2023/08/28 04:17:37;;;;;;;11.48;2.90;;;13.70;99.90;;;;;;5081390;28;20560;-61
2023/08/28 04:20:14;;;;;;;39.85;4.75;;;13.70;99.90;;;;;;5090379;28;20484;-60
2023/08/28 04:22:45;;;;;;;34.05;4.70;;;13.60;99.90;;;;;;5089784;28;20055;-60
2023/08/28 04:25:13;;;;;;;165.93;11.20;;;13.70;99.90;;;;;;5061447;28;20036;-60
2023/08/28 04:27:41;;;;;;;7.78;3.13;;;13.70;99.90;;;;;;5074597;28;20101;-60
2023/08/28 04:30:09;;;;;;;13.65;2.88;;;13.70;99.90;;;;;;5093613;28;20039;-60
2023/08/28 04:32:36;;;;;;;6.70;2.30;;;13.70;99.90;;;;;;5064730;28;20094;-60
2023/08/28 04:35:05;;;;;;;69.60;6.97;;;13.70;99.90;;;;;;5075323;28;20127;-59
2023/08/28 04:37:33;;;;;;;8.60;2.60;;;13.70;99.90;;;;;;5067086;28;20043;-60
2023/08/28 04:40:00;;;;;;;9.02;2.55;;;13.70;99.90;;;;;;5073283;28;20048;-60
2023/08/28 04:42:27;;;;;;;3.80;2.17;;;13.70;99.90;;;;;;5070465;28;20048;-61
2023/08/28 04:44:54;;;;;;;6.97;2.63;;;13.70;99.90;;;;;;5084337;28;20408;-61
2023/08/28 04:47:22;;;;;;;7.05;2.47;;;13.70;99.90;;;;;;5043142;28;20147;-63
2023/08/28 04:49:49;;;;;;;4.57;2.22;;;13.70;99.90;;;;;;5086838;28;20552;-61
2023/08/28 04:52:15;;;;;;;14.15;3.70;;;13.70;99.90;;;;;;5058923;28;20312;-62
2023/08/28 04:54:42;;;;;;;81.97;6.60;;;13.70;99.90;;;;;;5087890;28;20046;-61
2023/08/28 04:57:09;;;;;;;7.45;2.90;;;13.70;99.90;;;;;;5070748;28;20127;-62
2023/08/28 04:59:36;;;;;;;17.20;4.20;;;13.70;99.90;;;;;;5081400;28;20047;-58
2023/08/28 05:02:03;;;;;;;9.68;3.35;;;13.70;99.90;;;;;;5061498;28;20044;-58
2023/08/28 05:04:29;;;;;;;5.43;3.50;;;13.70;99.90;;;;;;5066360;28;20052;-61
2023/08/28 05:06:56;;;;;;;7.47;3.70;;;13.60;99.90;;;;;;5065269;28;20485;-60
2023/08/28 05:09:24;;;;;;;7.55;3.78;;;13.70;99.90;;;;;;5069015;28;21307;-61
2023/08/28 05:11:51;;;;;;;;;;;13.70;99.90;;;;;;5092421;28;20036;-61
2023/08/28 05:14:18;;;;;;;102.07;8.30;;;13.80;99.90;;;;;;5072830;28;19920;-61
2023/08/28 05:16:45;;;;;;;16.63;3.97;;;13.70;99.90;;;;;;5063132;28;20086;-61
2023/08/28 05:19:12;;;;;;;8.40;3.55;;;13.60;99.90;;;;;;5066751;28;20039;-61
2023/08/28 05:21:38;;;;;;;18.85;4.97;;;13.60;99.90;;;;;;5080858;28;20044;-60
2023/08/28 05:24:06;;;;;;;38.95;6.63;;;13.70;99.90;;;;;;5092727;28;20512;-61
2023/08/28 05:26:34;;;;;;;52.45;7.78;;;13.60;99.90;;;;;;5071031;28;20050;-61
2023/08/28 05:29:01;;;;;;;23.35;5.00;;;13.60;99.90;;;;;;5065466;28;20048;-60
2023/08/28 05:31:28;;;;;;;12.95;4.95;;;13.60;99.90;;;;;;5065394;28;20143;-61
2023/08/28 05:33:54;;;;;;;6.50;3.75;;;13.60;99.90;;;;;;5082986;28;20051;-61
2023/08/28 05:36:21;;;;;;;17.98;4.50;;;13.60;99.90;;;;;;5065569;28;20059;-62
2023/08/28 05:38:48;;;;;;;5.30;2.65;;;13.60;99.90;;;;;;5071448;28;20545;-61
2023/08/28 05:41:15;;;;;;;9.85;2.53;;;13.60;99.90;;;;;;5070313;28;20051;-61
2023/08/28 05:43:45;;;;;;;21.38;4.15;;;13.60;99.90;;;;;;5066573;28;20044;-61
2023/08/28 05:46:12;;;;;;;13.60;2.72;;;13.60;99.90;;;;;;5074088;28;20492;-61
2023/08/28 05:48:39;;;;;;;11.13;2.47;;;13.60;99.90;;;;;;5063226;28;20036;-60
2023/08/28 05:51:06;;;;;;;20.17;2.97;;;13.60;99.90;;;;;;5079702;28;20485;-62
2023/08/28 05:53:32;;;;;;;16.75;4.28;;;13.60;99.90;;;;;;5060116;28;20050;-62
2023/08/28 05:55:59;;;;;;;9.52;2.53;;;13.60;99.90;;;;;;5062137;28;20131;-62
2023/08/28 05:58:26;;;;;;;12.25;2.47;;;13.60;99.90;;;;;;5066986;28;20046;-60
2023/08/28 06:00:53;;;;;;;5.15;2.10;;;13.60;99.90;;;;;;5083833;28;20036;-61
2023/08/28 06:03:20;;;;;;;;;;;13.60;99.90;;;;;;5071798;28;20043;-61
2023/08/28 06:05:47;;;;;;;3.13;1.52;;;13.60;99.90;;;;;;5089291;28;19950;-62
2023/08/28 06:08:16;;;;;;;4.95;2.00;;;13.60;99.90;;;;;;5086972;28;20051;-60
2023/08/28 06:10:42;;;;;;;6.45;1.55;;;13.70;99.90;;;;;;5069178;28;20481;-61
2023/08/28 06:13:10;;;;;;;5.03;1.33;;;13.70;99.90;;;;;;5079529;28;20127;-62
2023/08/28 06:15:37;;;;;;;2.75;1.92;;;13.70;99.90;;;;;;5087562;28;20508;-61
2023/08/28 06:18:04;;;;;;;9.20;1.42;;;13.70;99.90;;;;;;5088867;28;20032;-61
2023/08/28 06:20:32;;;;;;;3.95;1.20;;;13.70;99.90;;;;;;5073409;28;20044;-60
2023/08/28 06:22:59;;;;;;;2.92;0.85;;;13.60;99.90;;;;;;5087473;28;20036;-61
2023/08/28 06:25:25;;;;;;;3.60;1.10;;;13.60;99.90;;;;;;5067487;28;20051;-60
2023/08/28 06:27:52;;;;;;;2.50;1.10;;;13.60;99.90;;;;;;5071307;28;20127;-62
2023/08/28 06:30:19;;;;;;;7.75;1.45;;;13.60;99.90;;;;;;5083409;28;20507;-60
2023/08/28 06:32:46;;;;;;;;;;;13.60;99.90;;;;;;5056204;28;20040;-61
2023/08/28 06:35:13;;;;;;;9.13;1.77;;;13.50;99.90;;;;;;5079076;28;19924;-62
2023/08/28 06:37:40;;;;;;;155.18;10.90;;;13.50;99.90;;;;;;5079550;28;20037;-65
2023/08/28 06:40:08;;;;;;;8.77;2.00;;;13.50;99.90;;;;;;5090594;28;20025;-62
2023/08/28 06:42:36;;;;;;;5.95;1.40;;;13.50;99.90;;;;;;5083832;28;20040;-61
2023/08/28 06:45:07;;;;;;;3.47;2.05;;;13.50;99.90;;;;;;5061010;28;20490;-61
2023/08/28 06:47:33;;;;;;;19.13;2.60;;;13.40;99.90;;;;;;5070512;28;20055;-61
2023/08/28 06:50:00;;;;;;;3.08;1.55;;;13.40;99.90;;;;;;5081135;28;20052;-60
2023/08/28 06:52:27;;;;;;;7.72;1.92;;;13.40;99.90;;;;;;5091161;28;20039;-61
2023/08/28 06:54:54;;;;;;;4.55;2.45;;;13.40;99.90;;;;;;5090576;28;20404;-62
2023/08/28 06:57:21;;;;;;;5.15;2.00;;;13.40;99.90;;;;;;5077886;28;20037;-61
2023/08/28 06:59:49;;;;;;;4.53;2.00;;;13.40;99.90;;;;;;5091311;28;20048;-61
2023/08/28 07:02:16;;;;;;;5.60;2.20;;;13.40;99.90;;;;;;5082485;28;20095;-62
2023/08/28 07:04:42;;;;;;;7.65;2.00;;;13.50;99.90;;;;;;5087462;28;20074;-60
2023/08/28 07:07:09;;;;;;;4.07;1.80;;;13.40;99.90;;;;;;5082140;28;20040;-62
2023/08/28 07:09:38;;;;;;;4.75;1.70;;;13.50;99.90;;;;;;5091443;28;20043;-60
2023/08/28 07:12:06;;;;;;;4.47;1.63;;;13.40;99.90;;;;;;5072930;28;20488;-61
2023/08/28 07:14:33;;;;;;;;;;;13.40;99.90;;;;;;5090767;28;20052;-61
2023/08/28 07:17:00;;;;;;;6.70;1.50;;;13.40;99.90;;;;;;5074043;28;19924;-60
2023/08/28 07:19:27;;;;;;;9.52;1.73;;;13.40;99.90;;;;;;5091000;28;20040;-61
2023/08/28 07:21:55;;;;;;;5.18;1.50;;;13.40;99.90;;;;;;5081384;28;20063;-62
2023/08/28 07:24:22;;;;;;;5.25;1.50;;;13.40;99.90;;;;;;5082648;28;20395;-61
2023/08/28 07:26:51;;;;;;;5.00;1.70;;;13.50;99.90;;;;;;5085620;28;20396;-61
2023/08/28 07:29:18;;;;;;;5.18;1.98;;;13.40;99.90;;;;;;5083343;28;20028;-62
2023/08/28 07:31:45;;;;;;;1.80;1.20;;;13.40;99.90;;;;;;5086686;28;20040;-62
2023/08/28 07:34:11;;;;;;;4.18;1.58;;;13.40;99.90;;;;;;5092882;28;20040;-61
2023/08/28 07:36:38;;;;;;;4.75;1.88;;;13.30;99.90;;;;;;5094237;28;20044;-61
2023/08/28 07:39:05;;;;;;;7.25;1.13;;;13.30;99.90;;;;;;5090257;28;20040;-61
2023/08/28 07:41:32;;;;;;;3.92;1.25;;;13.30;99.90;;;;;;5093126;28;20122;-61
2023/08/28 07:43:58;;;;;;;3.92;1.50;;;13.20;99.90;;;;;;5090807;28;20047;-61
2023/08/28 07:46:28;;;;;;;2.30;0.98;;;13.20;99.90;;;;;;5078755;28;20038;-62
2023/08/28 07:48:54;;;;;;;5.45;1.45;;;13.20;99.90;;;;;;5093865;28;20119;-61
2023/08/28 07:51:21;;;;;;;6.35;1.60;;;13.20;99.90;;;;;;5085687;28;20125;-61
2023/08/28 07:53:48;;;;;;;3.75;1.58;;;13.20;99.90;;;;;;5086589;28;20049;-61
2023/08/28 07:56:15;;;;;;;6.85;2.03;;;13.20;99.90;;;;;;5086879;28;20396;-62
2023/08/28 07:58:42;;;;;;;4.47;1.50;;;13.20;99.90;;;;;;5082220;28;20436;-61
2023/08/28 08:01:11;;;;;;;;;;;13.20;99.90;;;;;;5087234;28;20098;-62
2023/08/28 08:03:38;;;;;;;;;;;13.20;99.90;;;;;;5088248;28;19930;-62
2023/08/28 08:06:06;;;;;;;1.20;0.98;;;13.30;99.90;;;;;;5090725;28;19927;-61
2023/08/28 08:08:34;;;;;;;1.98;1.08;;;13.40;99.90;;;;;;5085316;28;20424;-61
2023/08/28 08:11:01;;;;;;;0.98;0.77;;;13.40;99.90;;;;;;5092201;28;20055;-61
2023/08/28 08:13:28;;;;;;;2.10;0.85;;;13.50;99.90;;;;;;5087033;28;20059;-62
2023/08/28 08:15:54;;;;;;;0.90;0.60;;;13.60;99.90;;;;;;5079604;28;20516;-62
2023/08/28 08:18:21;;;;;;;3.30;0.57;;;13.60;99.90;;;;;;5089724;28;20032;-61
2023/08/28 08:20:48;;;;;;;1.40;0.65;;;13.70;99.90;;;;;;5089597;28;20047;-61
2023/08/28 08:23:15;;;;;;;2.53;0.60;;;13.70;99.90;;;;;;5077944;28;20042;-61
2023/08/28 08:25:42;;;;;;;2.92;0.90;;;13.70;99.90;;;;;;5085203;28;20047;-60
2023/08/28 08:28:08;;;;;;;4.72;1.02;;;13.70;99.90;;;;;;5084408;28;20040;-62
2023/08/28 08:30:35;;;;;;;1.25;1.10;;;13.70;99.90;;;;;;5090119;28;20043;-61
2023/08/28 08:33:02;;;;;;;4.93;1.30;;;13.70;99.90;;;;;;5088410;28;20063;-62
2023/08/28 08:35:29;;;;;;;1.42;1.00;;;13.70;99.90;;;;;;5086770;28;20051;-62
2023/08/28 08:37:56;;;;;;;2.55;1.40;;;13.70;99.90;;;;;;5092308;28;20070;-62
2023/08/28 08:40:27;;;;;;;2.70;1.10;;;13.70;99.90;;;;;;5093901;28;20040;-61
2023/08/28 08:42:54;;;;;;;2.35;1.10;;;13.80;99.90;;;;;;5076923;28;20071;-62
2023/08/28 08:45:26;;;;;;;480.55;27.38;;;13.80;99.90;;;;;;5085173;28;20118;-61
2023/08/28 08:47:54;;;;;;;3.70;1.10;;;13.80;99.90;;;;;;5077106;28;20059;-61
2023/08/28 08:50:23;;;;;;;4.90;1.27;;;13.70;99.90;;;;;;5085163;28;20070;-62
2023/08/28 08:52:50;;;;;;;4.97;1.42;;;13.60;99.90;;;;;;5081494;28;20079;-61
2023/08/28 08:55:36;;;;;;;3.45;1.70;;;13.40;99.90;;;;;;5084003;28;20040;-61
2023/08/28 08:58:10;;;;;;;3.70;1.33;;;13.30;99.90;;;;;;5092916;28;20040;-61
2023/08/28 09:00:39;;;;;;;1.77;1.30;;;13.30;99.90;;;;;;5086779;28;20039;-62
2023/08/28 09:03:07;;;;;;;5.10;1.40;;;13.30;99.90;;;;;;5082153;28;20497;-62
2023/08/28 09:05:35;;;;;;;2.90;1.30;;;13.30;99.90;;;;;;5089782;28;20504;-61
2023/08/28 09:08:06;;;;;;;0.93;0.73;;;13.40;99.90;;;;;;5075366;28;20068;-61
2023/08/28 09:10:33;;;;;;;1.15;0.90;;;13.40;99.90;;;;;;5084391;28;20522;-61
2023/08/28 09:13:00;;;;;;;1.85;1.33;;;13.40;99.90;;;;;;5084174;28;20058;-61
2023/08/28 09:15:28;;;;;;;4.13;1.80;;;13.40;99.90;;;;;;5084504;28;20044;-59
2023/08/28 09:17:54;;;;;;;6.00;2.15;;;13.40;99.90;;;;;;5092380;28;20047;-61
2023/08/28 09:20:21;;;;;;;4.30;1.70;;;13.50;99.90;;;;;;5084093;28;20071;-60
2023/08/28 09:22:50;;;;;;;3.20;1.38;;;13.60;99.90;;;;;;5085800;28;20043;-62
2023/08/28 09:25:32;;;;;;;3.03;1.13;;;13.70;99.90;;;;;;5080872;28;20040;-61
2023/08/28 09:27:59;;;;;;;1.27;0.90;;;13.70;99.90;;;;;;5080543;28;20458;-62
2023/08/28 09:30:31;;;;;;;;;;;13.70;99.90;;;;;;5084656;28;20492;-61
2023/08/28 09:33:04;;;;;;;1.15;0.68;;;13.70;99.90;;;;;;5085454;28;19925;-60
2023/08/28 09:35:44;;;;;;;0.73;0.40;;;13.70;99.90;;;;;;5085109;28;20047;-61
2023/08/28 09:38:11;;;;;;;1.30;0.57;;;13.80;99.90;;;;;;5083381;28;20048;-61
2023/08/28 09:40:40;;;;;;;1.38;0.60;;;13.90;99.90;;;;;;5086764;28;20044;-61
2023/08/28 09:43:15;;;;;;;1.02;0.50;;;14.00;99.90;;;;;;5088726;28;20069;-61
2023/08/28 09:45:44;;;;;;;0.55;0.50;;;14.30;99.90;;;;;;5091769;28;20489;-62
2023/08/28 09:48:12;;;;;;;1.67;0.68;;;14.40;99.90;;;;;;5076081;28;20048;-62
2023/08/28 09:50:42;;;;;;;1.23;0.45;;;14.40;99.90;;;;;;5092232;28;20059;-61
2023/08/28 09:53:15;;;;;;;2.45;0.65;;;14.40;99.90;;;;;;5090667;28;20489;-61
2023/08/28 09:55:54;;;;;;;0.60;0.50;;;14.50;99.90;;;;;;5086973;28;20173;-61
2023/08/28 09:58:27;;;;;;;1.90;0.50;;;14.60;99.90;;;;;;5085052;28;20055;-60
2023/08/28 10:00:57;;;;;;;2.05;1.27;;;14.70;99.90;;;;;;5086536;28;20047;-60
2023/08/28 10:03:25;;;;;;;0.40;0.40;;;14.80;99.90;;;;;;5080543;28;20135;-61
2023/08/28 10:05:54;;;;;;;0.60;0.35;;;14.70;99.90;;;;;;5072928;28;20048;-62
2023/08/28 10:08:25;;;;;;;0.70;0.40;;;14.80;99.90;;;;;;5082121;28;20036;-62
2023/08/28 10:10:52;;;;;;;0.93;0.60;;;14.90;99.90;;;;;;5082764;28;20382;-62
2023/08/28 10:13:23;;;;;;;0.63;0.60;;;15.00;99.90;;;;;;5073750;28;20507;-62
2023/08/28 10:16:06;;;;;;;1.40;0.70;;;15.10;99.90;;;;;;5090271;28;20412;-62
2023/08/28 10:19:11;;;;;;;2.17;0.80;;;15.40;99.90;;;;;;5075168;28;20054;-62
2023/08/28 10:21:38;;;;;;;0.73;0.40;;;15.30;99.90;;;;;;5091202;28;20043;-62
2023/08/28 10:24:07;;;;;;;1.35;0.70;;;15.20;99.90;;;;;;5086858;28;20040;-61
2023/08/28 10:26:35;;;;;;;1.85;0.50;;;15.00;99.90;;;;;;5080847;28;20053;-62
2023/08/28 10:29:04;;;;;;;3.22;0.65;;;14.90;99.90;;;;;;5087294;28;20044;-60
2023/08/28 10:31:31;;;;;;;0.68;0.40;;;14.80;99.90;;;;;;5083445;28;20068;-60
2023/08/28 10:33:59;;;;;;;0.60;0.60;;;14.70;99.90;;;;;;5088439;28;20044;-61
2023/08/28 10:36:28;;;;;;;0.52;0.50;;;14.60;99.90;;;;;;5083164;28;20401;-62
2023/08/28 10:39:00;;;;;;;1.00;0.75;;;14.50;99.90;;;;;;5077598;28;20033;-61
2023/08/28 10:41:28;;;;;;;1.13;0.63;;;14.40;99.90;;;;;;5090886;28;20412;-61
2023/08/28 10:43:58;;;;;;;0.82;0.70;;;14.40;99.90;;;;;;5082485;28;20046;-62
2023/08/28 10:46:28;;;;;;;0.93;0.90;;;14.20;99.90;;;;;;5091380;28;20047;-61
2023/08/28 10:49:00;;;;;;;0.88;0.52;;;14.10;99.90;;;;;;5081927;28;20052;-62
2023/08/28 10:51:36;;;;;;;2.33;0.90;;;14.10;99.90;;;;;;5089936;28;20040;-62
2023/08/28 10:54:08;;;;;;;0.95;0.93;;;14.10;99.90;;;;;;5075462;28;20128;-60
2023/08/28 10:56:37;;;;;;;1.23;0.90;;;14.00;99.90;;;;;;5079680;28;20044;-62
2023/08/28 10:59:24;;;;;;;2.30;1.05;;;14.00;99.90;;;;;;5085588;28;20040;-58
2023/08/28 11:01:58;;;;;;;2.60;1.35;;;14.00;99.90;;;;;;5072647;28;20054;-60
2023/08/28 11:04:33;;;;;;;3.03;1.23;;;13.90;99.90;;;;;;5081916;28;20055;-62
2023/08/28 11:07:00;;;;;;;1.02;0.90;;;13.90;99.90;;;;;;5084367;28;20060;-62
2023/08/28 11:09:29;;;;;;;1.15;1.00;;;13.90;99.90;;;;;;5075992;28;20055;-62
2023/08/28 11:12:02;;;;;;;1.70;0.95;;;13.90;99.90;;;;;;5089917;28;20044;-61
2023/08/28 11:14:34;;;;;;;1.35;1.10;;;13.90;99.90;;;;;;5088350;28;20134;-62
2023/08/28 11:17:15;;;;;;;3.58;1.60;;;13.90;99.90;;;;;;5087474;28;20055;-62
2023/08/28 11:22:28;;;;;;;4.60;1.60;;;14.20;99.90;;;;;;5086628;28;20045;-62
2023/08/28 11:24:55;;;;;;;4.18;1.63;;;14.40;99.90;;;;;;5088759;28;20046;-61
2023/08/28 11:27:45;;;;;;;2.25;1.48;;;14.60;99.90;;;;;;5087361;28;20072;-62
2023/08/28 11:30:13;;;;;;;4.20;1.38;;;14.70;99.90;;;;;;5083444;28;20393;-62
2023/08/28 11:32:42;;;;;;;2.67;1.20;;;14.80;99.90;;;;;;5094711;28;20052;-61
2023/08/28 11:35:13;;;;;;;2.15;0.90;;;14.80;99.90;;;;;;5094694;28;20048;-62
2023/08/28 11:37:44;;;;;;;1.08;0.98;;;14.70;99.90;;;;;;5090434;28;20054;-60
2023/08/28 11:40:18;;;;;;;3.20;1.02;;;14.70;99.90;;;;;;5086367;28;20051;-60
2023/08/28 11:42:47;;;;;;;1.73;0.73;;;14.60;99.90;;;;;;5085165;28;20047;-62
2023/08/28 11:45:19;;;;;;;2.15;0.90;;;14.50;99.90;;;;;;5085679;28;20067;-62
2023/08/28 11:47:50;;;;;;;3.10;1.00;;;14.40;99.90;;;;;;5085670;28;20475;-62
2023/08/28 11:50:20;;;;;;;3.13;0.88;;;14.40;99.90;;;;;;5094658;28;20044;-61
2023/08/28 11:52:48;;;;;;;1.75;0.77;;;14.40;99.90;;;;;;5093860;28;20043;-62
2023/08/28 11:55:16;;;;;;;2.40;1.15;;;14.30;99.90;;;;;;5085131;28;20033;-62
2023/08/28 11:57:43;;;;;;;;;;;14.30;99.90;;;;;;5082899;28;20460;-60
2023/08/28 12:00:14;;;;;;;2.28;0.85;;;14.30;99.90;;;;;;5089781;28;20295;-61
2023/08/28 12:02:43;;;;;;;1.63;1.17;;;14.30;99.90;;;;;;5091790;28;20048;-62
2023/08/28 12:05:11;;;;;;;1.63;0.95;;;14.20;99.90;;;;;;5081827;28;20044;-62
2023/08/28 12:07:42;;;;;;;1.30;1.10;;;14.10;99.90;;;;;;5083766;28;20039;-61
2023/08/28 12:10:11;;;;;;;3.53;1.45;;;14.10;99.90;;;;;;5074471;28;20493;-62
2023/08/28 12:12:38;;;;;;;2.15;0.80;;;14.10;99.90;;;;;;5084574;28;20036;-62
2023/08/28 12:15:05;;;;;;;2.35;1.20;;;14.00;99.90;;;;;;5094013;28;20447;-62
2023/08/28 12:17:32;;;;;;;3.40;0.90;;;14.00;99.90;;;;;;5087320;28;20070;-61
2023/08/28 12:19:58;;;;;;;2.20;0.70;;;14.10;99.90;;;;;;5082503;28;20567;-61
2023/08/28 12:22:25;;;;;;;1.67;1.05;;;14.00;99.90;;;;;;5073414;28;20074;-62
2023/08/28 12:24:57;;;;;;;1.17;1.08;;;14.00;99.90;;;;;;5093179;28;20047;-62
2023/08/28 12:27:26;;;;;;;1.73;1.00;;;14.10;99.90;;;;;;5077644;28;20053;-62
2023/08/28 12:29:56;;;;;;;1.67;0.70;;;14.10;99.90;;;;;;5067530;28;20052;-62
2023/08/28 12:32:23;;;;;;;2.60;0.70;;;14.10;99.90;;;;;;5093517;28;20047;-62
2023/08/28 12:34:50;;;;;;;0.90;0.70;;;14.20;99.90;;;;;;5090231;28;20079;-62
2023/08/28 12:37:17;;;;;;;3.83;0.90;;;14.40;99.90;;;;;;5081570;28;20115;-62
2023/08/28 12:39:47;;;;;;;;;;;14.50;99.90;;;;;;5085534;28;20080;-62
2023/08/28 12:42:16;;;;;;;4.05;1.33;;;14.70;99.90;;;;;;5079112;28;19926;-62
2023/08/28 12:44:43;;;;;;;4.00;1.05;;;14.90;99.90;;;;;;5085472;28;20389;-60
2023/08/28 12:47:11;;;;;;;;;;;14.90;99.90;;;;;;5085705;28;20040;-62
2023/08/28 12:49:42;;;;;;;2.58;0.88;;;15.10;99.90;;;;;;5084442;28;19924;-62
2023/08/28 12:52:10;;;;;;;2.38;0.70;;;15.10;99.90;;;;;;5082178;28;20465;-62
2023/08/28 12:54:38;;;;;;;1.52;0.80;;;15.10;99.90;;;;;;5084676;28;20032;-62
2023/08/28 12:57:06;;;;;;;4.63;1.00;;;15.10;99.90;;;;;;5092945;28;20114;-62
2023/08/28 12:59:33;;;;;;;1.40;0.68;;;15.10;99.90;;;;;;5076340;28;20063;-62
2023/08/28 13:02:00;;;;;;;;;;;15.00;99.90;;;;;;5079432;28;20393;-62